KXNA/XNA METAR and TAF weather

Enter ICAO airport designator
Station Type Date Time Source
KXNA METAR 2022/01/25 04:53 UTC NOAA

KXNA 250453Z AUTO 03007KT 10SM CLR 03/M02 A2999 RMK AO2 SLP156 T00331022


Station Type Date Time Source
KXNA Decoded METAR 2022/01/25 04:53 UTC NOAA

NORTHWEST ARKANSAS REGIONAL, AR, United States (KXNA) 36-17N 94-18W
Jan 24, 2022 - 11:53 PM EST / 2022.01.25 0453 UTC
Wind: from the NNE (030 degrees) at 8 MPH (7 KT):0
Visibility: 10 mile(s):0
Sky conditions: clear
Temperature: 37.9 F (3.3 C)
Dew Point: 28.0 F (-2.2 C)
Relative Humidity: 67%
Pressure (altimeter): 29.99 in. Hg (1015 hPa)
ob: KXNA 250453Z AUTO 03007KT 10SM CLR 03/M02 A2999 RMK AO2 SLP156 T00331022
cycle: 5

Station Type Date Time Source
KXNA TAF 2022/01/24 18:22 UTC NOAA

TAF KXNA 241720Z 2418/2518 26011KT P6SM SKC
FM242200 VRB05KT P6SM FEW150
FM250100 01010KT P6SM SCT025 BKN150
FM251400 03013KT P6SM SCT250

Example: see airport list